Time;durP1;ratioP1;P1;durP2;ratioP2;P2;SDS_P1;SDS_P2;PMS_P1;PMS_P2;Temp;Humidity;BMP_temperature;BMP_pressure;BME280_temperature;BME280_humidity;BME280_pressure;Samples;Min_cycle;Max_cycle;Signal;HPM_P1;HPM_P2
2022/07/07 00:02:22;;;;;;;8.88;4.30;;;512.20;1945.60;;;;;;6153973;23;20014;-78
2022/07/07 00:04:47;;;;;;;6.72;4.07;;;512.40;1920.00;;;;;;6154216;23;20009;-79
2022/07/07 00:07:13;;;;;;;7.22;4.57;;;512.30;1945.60;;;;;;6127945;23;20005;-78
2022/07/07 00:09:39;;;;;;;6.43;4.05;;;512.60;1894.40;;;;;;6153944;23;19997;-78
2022/07/07 00:12:06;;;;;;;7.40;3.88;;;512.40;1920.00;;;;;;6127948;23;20053;-77
2022/07/07 00:14:32;;;;;;;8.07;4.00;;;;;;;;;;6154389;23;20064;-77
2022/07/07 00:16:58;;;;;;;5.88;4.55;;;;;;;;;;6128132;23;20080;-77
2022/07/07 00:19:25;;;;;;;5.72;4.43;;;;;;;;;;6153627;23;20189;-77
2022/07/07 00:21:51;;;;;;;4.97;3.65;;;512.20;1920.00;;;;;;6127956;23;20048;-77
2022/07/07 00:24:16;;;;;;;8.25;5.00;;;512.10;1971.20;;;;;;6153740;23;19993;-76
2022/07/07 00:26:42;;;;;;;8.45;4.53;;;;;;;;;;6128061;23;20002;-78
2022/07/07 00:29:09;;;;;;;6.20;5.00;;;;;;;;;;6154054;23;20048;-77
2022/07/07 00:31:35;;;;;;;6.22;4.13;;;;;;;;;;6153772;23;20002;-77
2022/07/07 00:34:01;;;;;;;6.43;3.78;;;512.10;1920.00;;;;;;6154097;23;20452;-76
2022/07/07 00:36:26;;;;;;;7.15;4.90;;;487.30;1945.60;;;;;;6153953;23;19997;-77
2022/07/07 00:38:52;;;;;;;7.00;4.30;;;487.30;1971.20;;;;;;6128038;23;20002;-76
2022/07/07 00:41:18;;;;;;;6.15;4.32;;;487.30;1945.60;;;;;;6155096;23;20029;-76
2022/07/07 00:43:44;;;;;;;4.43;3.53;;;512.10;1920.00;;;;;;6155849;23;20345;-78
2022/07/07 00:46:11;;;;;;;4.43;3.92;;;512.10;1894.40;;;;;;6155468;23;19998;-77
2022/07/07 00:48:39;;;;;;;8.82;3.88;;;487.30;1920.00;;;;;;6155533;23;20860;-77
2022/07/07 00:51:06;;;;;;;7.78;4.30;;;512.00;1920.00;;;;;;6155820;23;20524;-77
2022/07/07 00:53:32;;;;;;;6.93;3.97;;;512.00;1920.00;;;;;;6155431;23;20081;-76
2022/07/07 00:55:58;;;;;;;10.05;5.30;;;487.20;1945.60;;;;;;6129740;23;20041;-76
2022/07/07 00:58:24;;;;;;;7.00;4.60;;;487.10;1945.60;;;;;;6129266;23;20433;-74
2022/07/07 01:00:50;;;;;;;8.13;4.20;;;487.30;1920.00;;;;;;6155274;23;20009;-75
2022/07/07 01:03:16;;;;;;;7.63;5.43;;;512.00;1920.00;;;;;;6129580;23;20057;-74
2022/07/07 01:05:46;;;;;;;6.60;4.45;;;512.00;1894.40;;;;;;6155615;23;20321;-75
2022/07/07 01:08:15;;;;;;;10.18;4.43;;;512.00;1894.40;;;;;;6155317;23;20001;-77
2022/07/07 01:10:41;;;;;;;9.38;4.85;;;487.20;1894.40;;;;;;6155657;23;20021;-78
2022/07/07 01:13:07;;;;;;;6.90;4.43;;;487.30;1894.40;;;;;;6155715;23;19994;-79
2022/07/07 01:15:33;;;;;;;7.22;5.03;;;487.20;1920.00;;;;;;6129324;23;20005;-78
2022/07/07 01:17:59;;;;;;;8.02;4.00;;;487.30;1894.40;;;;;;6129417;23;20081;-78
2022/07/07 01:20:26;;;;;;;6.13;4.38;;;487.30;1894.40;;;;;;6155264;23;20024;-78
2022/07/07 01:22:53;;;;;;;6.82;4.72;;;487.20;1894.40;;;;;;6155236;23;20002;-78
2022/07/07 01:25:19;;;;;;;7.15;4.85;;;512.00;1843.20;;;;;;6155730;23;20096;-78
2022/07/07 01:27:45;;;;;;;6.78;4.43;;;487.10;1894.40;;;;;;6129334;23;20310;-80
2022/07/07 01:30:12;;;;;;;7.47;4.30;;;487.10;1894.40;;;;;;6129419;23;20008;-78
2022/07/07 01:32:37;;;;;;;7.25;4.43;;;487.10;1843.20;;;;;;6129598;23;20001;-78
2022/07/07 01:35:04;;;;;;;7.82;4.20;;;487.20;1843.20;;;;;;6129372;23;20005;-80
2022/07/07 01:37:32;;;;;;;7.35;5.10;;;487.20;1817.60;;;;;;6129234;23;20029;-77
2022/07/07 01:39:58;;;;;;;4.90;4.32;;;512.00;1792.00;;;;;;6154862;23;20009;-78
2022/07/07 01:42:24;;;;;;;6.85;4.10;;;512.00;1766.40;;;;;;6154742;23;20013;-79
2022/07/07 01:44:51;;;;;;;8.65;5.82;;;512.00;1766.40;;;;;;6155207;23;20325;-78
2022/07/07 01:47:19;;;;;;;6.28;3.92;;;512.00;1766.40;;;;;;6129230;23;20053;-78
2022/07/07 01:49:45;;;;;;;8.38;4.68;;;487.20;1715.20;;;;;;6155306;23;20001;-80
2022/07/07 01:52:10;;;;;;;5.53;3.97;;;487.30;1766.40;;;;;;6154750;23;20361;-78
2022/07/07 01:54:36;;;;;;;8.82;4.93;;;512.00;1715.20;;;;;;6155459;23;20005;-78
2022/07/07 01:57:03;;;;;;;5.32;4.30;;;487.30;1715.20;;;;;;6155230;23;20001;-78
2022/07/07 01:59:29;;;;;;;8.30;4.07;;;487.30;1715.20;;;;;;6129264;23;20009;-76
2022/07/07 02:01:55;;;;;;;5.78;3.95;;;487.20;1715.20;;;;;;6155056;23;20012;-76
2022/07/07 02:04:20;;;;;;;8.20;3.83;;;487.30;1689.60;;;;;;6154947;23;20001;-78
2022/07/07 02:06:46;;;;;;;4.20;3.50;;;487.20;1689.60;;;;;;6155159;23;20052;-77
2022/07/07 02:09:12;;;;;;;6.78;4.07;;;487.10;1689.60;;;;;;6155079;23;20052;-77
2022/07/07 02:11:38;;;;;;;5.47;4.07;;;487.00;1689.60;;;;;;6129058;23;20006;-76
2022/07/07 02:14:04;;;;;;;5.43;4.00;;;486.90;1715.20;;;;;;6154612;23;20008;-76
2022/07/07 02:16:31;;;;;;;4.65;4.15;;;487.00;1689.60;;;;;;6154956;23;20452;-76
2022/07/07 02:19:00;;;;;;;6.60;4.10;;;487.00;1689.60;;;;;;6128812;23;20002;-76
2022/07/07 02:21:26;;;;;;;5.35;3.70;;;487.20;1664.00;;;;;;6154830;23;20033;-76
2022/07/07 02:23:54;;;;;;;5.32;3.78;;;487.20;1664.00;;;;;;6128737;23;20059;-76
2022/07/07 02:26:20;;;;;;;8.77;3.88;;;487.10;1689.60;;;;;;6154683;23;20059;-77
2022/07/07 02:28:46;;;;;;;7.47;4.53;;;486.90;1715.20;;;;;;6128921;23;20149;-76
2022/07/07 02:31:12;;;;;;;6.18;4.53;;;486.90;1715.20;;;;;;6128332;23;20445;-77
2022/07/07 02:33:38;;;;;;;6.35;3.90;;;487.00;1689.60;;;;;;6128819;23;20008;-77
2022/07/07 02:36:05;;;;;;;5.30;3.60;;;487.00;1664.00;;;;;;6154631;23;19998;-79
2022/07/07 02:38:32;;;;;;;9.38;4.97;;;486.80;1715.20;;;;;;6128832;23;20385;-78
2022/07/07 02:40:58;;;;;;;9.77;4.35;;;486.80;1740.80;;;;;;6154505;23;20413;-78
2022/07/07 02:43:24;;;;;;;10.57;4.63;;;486.60;1766.40;;;;;;6128763;23;20081;-77
2022/07/07 02:45:50;;;;;;;5.90;4.35;;;486.70;1740.80;;;;;;6128720;23;19997;-77
2022/07/07 02:48:19;;;;;;;8.68;4.55;;;486.60;1740.80;;;;;;6154392;23;21077;-78
2022/07/07 02:50:45;;;;;;;6.07;4.45;;;486.70;1715.20;;;;;;6154796;23;20005;-79
2022/07/07 02:53:11;;;;;;;10.30;5.47;;;486.70;1740.80;;;;;;6128180;23;20001;-79
2022/07/07 02:55:38;;;;;;;12.05;5.25;;;486.50;1766.40;;;;;;6128457;23;20002;-80
2022/07/07 02:58:05;;;;;;;11.63;4.43;;;486.50;1792.00;;;;;;6154838;23;20005;-78
2022/07/07 03:00:34;;;;;;;9.23;5.38;;;486.70;1766.40;;;;;;6154487;23;19998;-79
2022/07/07 03:03:01;;;;;;;7.00;4.32;;;486.80;1715.20;;;;;;6128491;23;20429;-79
2022/07/07 03:05:27;;;;;;;7.78;4.10;;;486.70;1715.20;;;;;;6154222;23;20025;-78
2022/07/07 03:07:53;;;;;;;4.95;3.65;;;486.80;1689.60;;;;;;6154724;23;20418;-78
2022/07/07 03:10:19;;;;;;;6.55;4.07;;;486.80;1689.60;;;;;;6154577;23;20005;-78
2022/07/07 03:12:45;;;;;;;10.00;4.05;;;486.80;1689.60;;;;;;6154680;23;19997;-78
2022/07/07 03:15:11;;;;;;;9.73;5.13;;;486.80;1689.60;;;;;;6154547;23;20001;-78
2022/07/07 03:17:40;;;;;;;12.85;5.13;;;486.70;1689.60;;;;;;6128263;23;20006;-78
2022/07/07 03:20:07;;;;;;;9.07;4.57;;;486.80;1715.20;;;;;;6128205;23;20055;-77
2022/07/07 03:22:32;;;;;;;6.15;3.80;;;486.90;1689.60;;;;;;6128099;23;20056;-78
2022/07/07 03:24:58;;;;;;;6.75;4.45;;;487.10;1664.00;;;;;;6154546;23;20072;-77
2022/07/07 03:27:24;;;;;;;8.05;4.03;;;487.00;1689.60;;;;;;6128268;23;20001;-77
2022/07/07 03:29:51;;;;;;;7.60;4.30;;;487.10;1664.00;;;;;;6154483;23;20429;-78
2022/07/07 03:32:16;;;;;;;6.90;4.50;;;487.10;1638.40;;;;;;6154443;23;20007;-75
2022/07/07 03:34:42;;;;;;;7.63;4.47;;;487.00;1664.00;;;;;;6154360;23;20032;-77
2022/07/07 03:37:08;;;;;;;9.65;5.72;;;486.90;1689.60;;;;;;6154349;23;20001;-76
2022/07/07 03:39:33;;;;;;;8.15;5.03;;;486.80;1689.60;;;;;;6153856;23;20047;-75
2022/07/07 03:41:59;;;;;;;7.47;4.38;;;486.60;1740.80;;;;;;6154083;23;20106;-76
2022/07/07 03:44:26;;;;;;;6.13;4.32;;;461.70;1792.00;;;;;;6153666;23;20410;-77
2022/07/07 03:46:51;;;;;;;5.80;4.05;;;461.50;1817.60;;;;;;6154224;23;20069;-77
2022/07/07 03:49:17;;;;;;;7.80;3.65;;;461.60;1792.00;;;;;;6154090;23;20361;-75
2022/07/07 03:51:43;;;;;;;9.60;4.70;;;461.60;1792.00;;;;;;6153889;23;19997;-75
2022/07/07 03:54:09;;;;;;;7.20;4.18;;;461.60;1792.00;;;;;;6154214;23;20468;-76
2022/07/07 03:56:35;;;;;;;6.82;3.75;;;461.70;1792.00;;;;;;6153846;23;20072;-76
2022/07/07 03:59:02;;;;;;;6.85;4.70;;;486.40;1766.40;;;;;;6153768;23;20006;-76
2022/07/07 04:01:27;;;;;;;5.70;4.18;;;486.50;1740.80;;;;;;6153683;23;20064;-75
2022/07/07 04:03:53;;;;;;;11.30;5.07;;;486.50;1740.80;;;;;;6154129;23;20002;-76
2022/07/07 04:06:19;;;;;;;7.00;4.28;;;486.40;1766.40;;;;;;6154086;23;20425;-76
2022/07/07 04:08:44;;;;;;;5.75;4.30;;;486.40;1766.40;;;;;;6154137;23;20005;-74
2022/07/07 04:11:10;;;;;;;8.45;4.63;;;486.40;1766.40;;;;;;6154110;23;20043;-75
2022/07/07 04:13:36;;;;;;;9.38;4.68;;;486.40;1792.00;;;;;;6153731;23;20008;-74
2022/07/07 04:16:02;;;;;;;10.65;5.57;;;486.50;1766.40;;;;;;6129358;23;19998;-77
2022/07/07 04:18:27;;;;;;;9.07;4.55;;;486.50;1792.00;;;;;;6155880;23;19998;-75
2022/07/07 04:20:53;;;;;;;8.48;5.70;;;486.50;1792.00;;;;;;6155797;23;20089;-75
2022/07/07 04:23:19;;;;;;;9.00;5.93;;;486.60;1792.00;;;;;;6155402;23;20021;-75
2022/07/07 04:25:44;;;;;;;12.50;7.18;;;486.70;1792.00;;;;;;6155862;23;20488;-75
2022/07/07 04:28:11;;;;;;;11.38;5.93;;;486.70;1792.00;;;;;;6155511;23;19997;-75
2022/07/07 04:30:36;;;;;;;9.80;6.18;;;486.70;1817.60;;;;;;6155652;23;20383;-74
2022/07/07 04:33:02;;;;;;;13.80;7.10;;;486.80;1792.00;;;;;;6155732;23;20013;-75
2022/07/07 04:35:28;;;;;;;12.13;6.40;;;486.90;1766.40;;;;;;6155798;23;20002;-75
2022/07/07 04:37:53;;;;;;;9.65;6.82;;;487.10;1740.80;;;;;;6155616;23;20077;-75
2022/07/07 04:40:19;;;;;;;12.48;6.03;;;487.10;1740.80;;;;;;6129563;23;20001;-73
2022/07/07 04:42:45;;;;;;;17.60;7.47;;;487.20;1689.60;;;;;;6155110;23;20445;-76
2022/07/07 04:45:11;;;;;;;12.02;5.88;;;487.20;1689.60;;;;;;6155628;23;20044;-78
2022/07/07 04:47:40;;;;;;;11.15;5.35;;;487.20;1689.60;;;;;;6129218;23;20001;-80
2022/07/07 04:50:11;;;;;;;5.75;4.28;;;512.10;1664.00;;;;;;6155592;23;19994;-76
2022/07/07 04:52:37;;;;;;;17.73;7.20;;;487.20;1689.60;;;;;;6155212;23;20002;-76
2022/07/07 04:55:04;;;;;;;11.65;5.38;;;487.20;1689.60;;;;;;6155248;23;19997;-75
2022/07/07 04:57:30;;;;;;;8.75;6.15;;;487.20;1689.60;;;;;;6155530;23;20024;-76
2022/07/07 04:59:55;;;;;;;12.13;5.60;;;487.30;1689.60;;;;;;6155460;23;20430;-75
2022/07/07 05:02:21;;;;;;;13.77;6.13;;;512.00;1664.00;;;;;;6155282;23;20005;-75
2022/07/07 05:04:49;;;;;;;5.95;4.78;;;512.00;1664.00;;;;;;6155678;23;20002;-76
2022/07/07 05:07:15;;;;;;;10.98;8.15;;;512.00;1638.40;;;;;;6129352;23;19997;-76
2022/07/07 05:09:40;;;;;;;11.20;4.65;;;512.20;1638.40;;;;;;6155315;23;19997;-75
2022/07/07 05:12:06;;;;;;;11.93;4.15;;;512.50;1510.40;;;;;;6155379;23;20001;-76
2022/07/07 05:14:32;;;;;;;7.97;4.35;;;512.60;1484.80;;;;;;6155256;23;20333;-75
2022/07/07 05:16:59;;;;;;;11.93;4.72;;;512.80;1484.80;;;;;;6155486;23;20002;-75
2022/07/07 05:19:25;;;;;;;7.93;4.38;;;512.90;1459.20;;;;;;6155725;23;20912;-75
2022/07/07 05:21:51;;;;;;;9.70;4.55;;;537.60;1484.80;;;;;;6153150;23;20017;-76
2022/07/07 05:24:17;;;;;;;9.70;6.30;;;537.70;1459.20;;;;;;6154981;23;19998;-75
2022/07/07 05:26:42;;;;;;;7.13;3.50;;;537.80;1408.00;;;;;;6154777;23;20002;-76
2022/07/07 05:29:08;;;;;;;10.35;4.43;;;537.90;1408.00;;;;;;6155085;23;20002;-74
2022/07/07 05:31:34;;;;;;;14.40;7.35;;;538.10;1408.00;;;;;;6154651;23;19998;-75
2022/07/07 05:33:59;;;;;;;7.53;4.63;;;538.00;1408.00;;;;;;6153755;23;19998;-75
2022/07/07 05:36:25;;;;;;;8.82;5.22;;;537.90;1408.00;;;;;;6154285;23;20012;-75
2022/07/07 05:38:51;;;;;;;10.60;4.82;;;537.90;1382.40;;;;;;6154575;23;20453;-74
2022/07/07 05:41:17;;;;;;;11.50;4.93;;;538.00;1408.00;;;;;;6154464;23;20024;-75
2022/07/07 05:43:43;;;;;;;7.82;4.13;;;538.10;1382.40;;;;;;6154035;23;20438;-75
2022/07/07 05:46:08;;;;;;;10.40;4.43;;;538.30;1382.40;;;;;;6126964;23;20092;-76
2022/07/07 05:48:34;;;;;;;6.13;3.97;;;538.40;1331.20;;;;;;6153270;23;20321;-76
2022/07/07 05:51:00;;;;;;;7.05;3.83;;;538.40;1356.80;;;;;;6154815;23;20422;-76
2022/07/07 05:53:25;;;;;;;10.95;4.13;;;563.40;1228.80;;;;;;6154548;23;20048;-76
2022/07/07 05:55:51;;;;;;;10.25;3.85;;;563.30;1305.60;;;;;;6154546;23;19997;-75
2022/07/07 05:58:17;;;;;;;5.70;3.78;;;563.40;1331.20;;;;;;6154547;23;20306;-75
2022/07/07 06:00:43;;;;;;;11.05;4.88;;;563.40;1305.60;;;;;;6128457;23;20080;-76
2022/07/07 06:03:08;;;;;;;11.55;3.80;;;563.50;1280.00;;;;;;6154090;23;20076;-75
2022/07/07 06:05:34;;;;;;;8.52;3.33;;;563.60;1254.40;;;;;;6154581;23;20001;-75
2022/07/07 06:08:00;;;;;;;6.10;3.53;;;563.50;1203.20;;;;;;6154917;23;20040;-75
2022/07/07 06:10:26;;;;;;;10.02;5.47;;;563.60;1203.20;;;;;;6154390;23;20002;-75
2022/07/07 06:12:52;;;;;;;8.05;3.95;;;563.80;1126.40;;;;;;6154012;23;20379;-75
2022/07/07 06:15:20;;;;;;;7.05;2.78;;;563.80;1100.80;;;;;;6126296;23;20026;-75
2022/07/07 06:17:46;;;;;;;4.43;2.88;;;;;;;;;;6152639;23;20540;-76
2022/07/07 06:20:12;;;;;;;5.32;3.10;;;564.00;1177.60;;;;;;6152433;23;19994;-75
2022/07/07 06:22:38;;;;;;;8.05;2.92;;;564.00;1075.20;;;;;;6152072;23;20009;-76
2022/07/07 06:25:04;;;;;;;5.78;3.50;;;564.00;1075.20;;;;;;6152081;23;20172;-76
2022/07/07 06:27:30;;;;;;;4.43;2.72;;;;;;;;;;6152408;23;20024;-75
2022/07/07 06:29:57;;;;;;;11.93;3.15;;;;;;;;;;6154392;23;20009;-75
2022/07/07 06:32:22;;;;;;;5.57;3.20;;;588.90;1024.00;;;;;;6154657;23;19993;-75
2022/07/07 06:34:48;;;;;;;13.57;3.47;;;588.80;1024.00;;;;;;6154745;23;20266;-75
2022/07/07 06:37:14;;;;;;;5.45;3.30;;;588.80;1049.60;;;;;;6154660;23;19998;-76
2022/07/07 06:39:40;;;;;;;5.57;3.03;;;589.00;998.40;;;;;;6154870;23;20039;-76
2022/07/07 06:42:06;;;;;;;8.80;3.25;;;589.00;972.80;;;;;;6154619;23;20021;-75
2022/07/07 06:44:32;;;;;;;5.88;3.80;;;589.00;972.80;;;;;;6153817;23;19993;-76
2022/07/07 06:47:00;;;;;;;4.47;2.65;;;589.10;947.20;;;;;;6154348;23;20025;-75
2022/07/07 06:49:27;;;;;;;6.28;2.90;;;589.00;972.80;;;;;;6154500;23;20072;-76
2022/07/07 06:51:53;;;;;;;6.40;3.17;;;589.10;972.80;;;;;;6128103;23;20008;-75
2022/07/07 06:54:19;;;;;;;6.35;3.85;;;589.10;947.20;;;;;;6154317;23;20031;-75
2022/07/07 06:56:45;;;;;;;7.72;3.40;;;589.20;947.20;;;;;;6154384;23;20025;-77
2022/07/07 06:59:11;;;;;;;8.43;4.45;;;589.30;972.80;;;;;;6154421;23;20025;-77
2022/07/07 07:01:37;;;;;;;11.77;3.75;;;589.40;972.80;;;;;;6154158;23;20012;-76
2022/07/07 07:04:03;;;;;;;6.40;3.72;;;589.40;972.80;;;;;;6154188;23;20078;-75
2022/07/07 07:06:29;;;;;;;13.32;4.20;;;589.50;972.80;;;;;;6153956;23;20503;-77
2022/07/07 07:08:56;;;;;;;11.35;5.13;;;589.50;972.80;;;;;;6153740;23;19997;-75
2022/07/07 07:11:22;;;;;;;6.03;3.63;;;589.50;972.80;;;;;;6154009;23;19998;-76
2022/07/07 07:13:48;;;;;;;4.70;2.90;;;589.50;947.20;;;;;;6154087;23;20002;-75
2022/07/07 07:16:17;;;;;;;7.20;2.92;;;589.60;947.20;;;;;;6153859;23;20005;-74
2022/07/07 07:18:43;;;;;;;3.30;2.30;;;;;;;;;;6154098;23;19997;-74
2022/07/07 07:21:09;;;;;;;4.95;3.28;;;;;;;;;;6153991;23;20009;-74
2022/07/07 07:23:37;;;;;;;20.20;15.60;;;;;;;;;;6153991;23;20068;-75
2022/07/07 07:26:06;;;;;;;10.68;6.03;;;589.70;896.00;;;;;;6153995;23;19997;-75
2022/07/07 07:28:33;;;;;;;9.82;6.47;;;589.70;921.60;;;;;;6153938;23;20001;-74
2022/07/07 07:30:59;;;;;;;6.85;3.90;;;614.60;921.60;;;;;;6153993;23;20080;-75
2022/07/07 07:33:25;;;;;;;7.80;3.40;;;614.40;921.60;;;;;;6153293;23;20028;-75
2022/07/07 07:35:50;;;;;;;7.03;2.40;;;614.50;947.20;;;;;;6154254;23;20484;-75
2022/07/07 07:38:16;;;;;;;8.52;2.88;;;614.50;844.80;;;;;;6153531;23;20129;-75
2022/07/07 07:40:42;;;;;;;7.70;3.13;;;614.60;844.80;;;;;;6153739;23;20045;-76
2022/07/07 07:43:08;;;;;;;8.00;4.63;;;614.60;870.40;;;;;;6154058;23;20002;-75
2022/07/07 07:45:34;;;;;;;3.25;2.60;;;614.70;896.00;;;;;;6153717;23;20329;-76
2022/07/07 07:48:03;;;;;;;4.15;3.13;;;614.90;819.20;;;;;;6153845;23;19994;-76
2022/07/07 07:50:30;;;;;;;10.40;5.45;;;614.90;793.60;;;;;;6127020;23;20033;-74
2022/07/07 07:52:56;;;;;;;28.38;21.73;;;614.80;819.20;;;;;;6153599;23;20429;-77
2022/07/07 07:55:23;;;;;;;33.47;23.55;;;614.90;844.80;;;;;;6153700;23;20019;-76
2022/07/07 07:57:50;;;;;;;34.25;22.25;;;614.90;844.80;;;;;;6153756;23;20001;-77
2022/07/07 08:00:18;;;;;;;8.00;4.38;;;614.90;844.80;;;;;;6153395;23;20002;-77
2022/07/07 08:02:45;;;;;;;16.40;10.10;;;615.10;896.00;;;;;;6153296;23;20342;-76
2022/07/07 08:05:11;;;;;;;14.45;8.93;;;615.10;896.00;;;;;;6153502;23;19998;-76
2022/07/07 08:07:37;;;;;;;18.65;11.20;;;615.00;896.00;;;;;;6153165;23;20001;-76
2022/07/07 08:10:04;;;;;;;19.13;11.52;;;615.00;896.00;;;;;;6153680;23;20005;-78
2022/07/07 08:12:29;;;;;;;9.40;3.78;;;615.10;896.00;;;;;;6153724;23;20013;-75
2022/07/07 08:14:55;;;;;;;3.70;3.08;;;640.00;870.40;;;;;;6153841;23;20001;-75
2022/07/07 08:17:21;;;;;;;4.45;2.63;;;;;;;;;;6153575;23;19998;-74
2022/07/07 08:19:47;;;;;;;12.25;7.75;;;;;;;;;;6154004;23;20028;-75
2022/07/07 08:22:14;;;;;;;17.30;9.55;;;;;;;;;;6153407;23;20441;-74
2022/07/07 08:24:40;;;;;;;10.25;2.78;;;640.20;665.60;;;;;;6153616;23;19998;-76
2022/07/07 08:27:05;;;;;;;6.45;3.00;;;640.10;665.60;;;;;;6153758;23;20492;-75
2022/07/07 08:29:31;;;;;;;4.43;2.83;;;;;;;;;;6153861;23;19998;-75
2022/07/07 08:31:57;;;;;;;3.72;1.60;;;640.40;665.60;;;;;;6153766;23;19998;-74
2022/07/07 08:34:23;;;;;;;5.30;2.20;;;640.50;486.40;;;;;;6153337;23;20036;-73
2022/07/07 08:36:50;;;;;;;2.50;1.70;;;;;;;;;;6153744;23;20448;-74
2022/07/07 08:39:16;;;;;;;3.35;2.20;;;;;;;;;;6153349;23;20063;-74
2022/07/07 08:41:42;;;;;;;2.80;2.20;;;665.60;409.60;;;;;;6153308;23;20017;-74
2022/07/07 08:44:08;;;;;;;2.75;2.03;;;640.90;384.00;;;;;;6153961;23;20001;-75
2022/07/07 08:46:34;;;;;;;5.53;2.58;;;640.90;384.00;;;;;;6153618;23;19997;-76
2022/07/07 08:49:00;;;;;;;2.85;2.03;;;640.90;409.60;;;;;;6153596;23;20025;-78
2022/07/07 08:51:26;;;;;;;6.35;2.10;;;665.60;409.60;;;;;;6153349;23;20030;-75
2022/07/07 08:53:52;;;;;;;8.82;2.83;;;640.90;384.00;;;;;;6153168;23;19997;-74
2022/07/07 08:56:19;;;;;;;3.97;2.72;;;665.70;409.60;;;;;;6153557;23;20078;-76
2022/07/07 08:58:46;;;;;;;3.50;2.42;;;665.80;486.40;;;;;;6153688;23;20077;-74
2022/07/07 09:01:12;;;;;;;2.58;1.90;;;640.90;358.40;;;;;;6153551;23;20025;-75
2022/07/07 09:03:38;;;;;;;3.88;2.00;;;640.80;384.00;;;;;;6129258;23;20005;-74
2022/07/07 09:06:04;;;;;;;6.68;1.70;;;665.60;384.00;;;;;;6155081;23;20065;-76
2022/07/07 09:08:32;;;;;;;5.20;1.67;;;665.60;358.40;;;;;;6155529;23;20049;-75
2022/07/07 09:10:58;;;;;;;3.67;2.13;;;665.80;358.40;;;;;;6155778;23;20166;-75
2022/07/07 09:13:32;;;;;;;2.97;2.00;;;666.00;358.40;;;;;;6155061;23;20016;-76
2022/07/07 09:16:18;;;;;;;2.55;1.70;;;666.10;358.40;;;;;;6155040;23;20010;-74
2022/07/07 09:18:45;;;;;;;2.38;1.65;;;666.00;307.20;;;;;;6154430;23;20466;-73
2022/07/07 09:21:31;;;;;;;4.15;1.67;;;;;;;;;;6154845;23;20016;-75
2022/07/07 09:24:00;;;;;;;2.67;1.60;;;;;;;;;;6155294;23;20445;-75
2022/07/07 09:26:36;;;;;;;3.22;1.58;;;;;;;;;;6154777;23;20002;-76
2022/07/07 09:29:02;;;;;;;2.70;1.40;;;;;;;;;;6154846;23;20489;-75
2022/07/07 09:32:01;;;;;;;2.15;1.33;;;666.10;230.40;;;;;;6128499;23;20044;-74
2022/07/07 09:34:30;;;;;;;3.90;1.48;;;666.10;256.00;;;;;;6144712;23;20001;-75
2022/07/07 09:39:49;;;;;;;2.25;1.30;;;666.10;256.00;;;;;;6154017;23;20013;-76
2022/07/07 09:42:24;;;;;;;2.20;1.35;;;666.20;256.00;;;;;;6154246;23;20024;-76
2022/07/07 09:45:03;;;;;;;2.15;1.40;;;666.40;204.80;;;;;;6128733;23;20008;-77
2022/07/07 09:47:29;;;;;;;2.10;1.35;;;666.20;204.80;;;;;;6154349;23;20084;-74
2022/07/07 09:50:02;;;;;;;3.25;1.63;;;666.10;204.80;;;;;;6154643;23;20097;-74
2022/07/07 09:52:31;;;;;;;5.45;1.52;;;666.40;204.80;;;;;;6128549;23;20006;-76
2022/07/07 09:54:58;;;;;;;3.63;1.70;;;666.40;204.80;;;;;;6154733;23;20037;-74
2022/07/07 09:57:24;;;;;;;1.80;1.10;;;;;;;;;;6154909;23;20005;-75
2022/07/07 09:59:50;;;;;;;2.90;1.48;;;;;;;;;;6153971;23;20021;-74
2022/07/07 10:02:24;;;;;;;3.72;1.55;;;;;;;;;;6154224;23;20013;-75
2022/07/07 10:04:52;;;;;;;2.53;1.75;;;691.20;179.20;;;;;;6127951;23;20009;-74
2022/07/07 10:07:21;;;;;;;5.13;1.50;;;691.60;153.60;;;;;;6127596;23;20002;-75
2022/07/07 10:09:55;;;;;;;5.45;2.95;;;691.20;153.60;;;;;;6153439;23;20022;-76
2022/07/07 10:12:24;;;;;;;4.70;2.85;;;666.40;153.60;;;;;;6154232;23;19998;-75
2022/07/07 10:14:57;;;;;;;3.35;1.60;;;691.20;179.20;;;;;;6154182;23;20001;-77
2022/07/07 10:17:24;;;;;;;1.58;1.02;;;691.40;153.60;;;;;;6128226;23;20002;-76
2022/07/07 10:19:50;;;;;;;2.65;1.75;;;691.20;153.60;;;;;;6154680;23;20000;-75
2022/07/07 10:22:16;;;;;;;3.92;1.83;;;691.20;153.60;;;;;;6154722;23;20010;-78
2022/07/07 10:24:42;;;;;;;1.40;1.15;;;691.60;179.20;;;;;;6154763;23;20414;-75
2022/07/07 10:27:14;;;;;;;2.55;1.42;;;691.20;179.20;;;;;;6153654;23;19998;-77
2022/07/07 10:29:44;;;;;;;3.33;2.15;;;691.20;204.80;;;;;;6153526;23;20311;-76
2022/07/07 10:32:14;;;;;;;4.18;1.60;;;;;;;;;;6154059;23;20076;-75
2022/07/07 10:34:42;;;;;;;3.70;2.08;;;;;;;;;;6154399;23;20068;-75
2022/07/07 10:37:09;;;;;;;2.90;2.03;;;;;;;;;;6153511;23;20102;-76
2022/07/07 10:39:46;;;;;;;3.47;1.48;;;;;;;;;;6154013;23;20001;-74
2022/07/07 10:42:15;;;;;;;2.28;1.30;;;;;;;;;;6154273;23;20446;-75
2022/07/07 10:44:43;;;;;;;2.20;1.50;;;;;;;;;;6154279;23;20001;-75
2022/07/07 10:47:12;;;;;;;2.45;1.27;;;;;;;;;;6154297;23;19997;-75
2022/07/07 10:49:41;;;;;;;2.50;1.30;;;;;;;;;;6154550;23;20002;-76
2022/07/07 10:52:15;;;;;;;4.15;1.60;;;;;;;;;;6127967;23;20012;-75
2022/07/07 10:54:41;;;;;;;2.83;1.83;;;;;;;;;;6154322;23;20006;-74
2022/07/07 10:57:17;;;;;;;4.80;1.65;;;;;;;;;;6154473;23;20044;-75
2022/07/07 11:00:06;;;;;;;4.40;1.42;;;;;;;;;;6154414;23;20627;-77
2022/07/07 11:02:33;;;;;;;5.15;1.83;;;;;;;;;;6127969;23;20349;-75
2022/07/07 11:05:00;;;;;;;3.53;2.55;;;;;;;;;;6154411;23;20006;-75
2022/07/07 11:07:28;;;;;;;4.00;2.08;;;;;;;;;;6153945;23;19998;-75
2022/07/07 11:10:03;;;;;;;2.60;1.35;;;;;;;;;;6154280;23;19993;-76
2022/07/07 11:12:37;;;;;;;4.88;1.55;;;;;;;;;;6153428;23;20479;-75
2022/07/07 11:15:18;;;;;;;2.42;1.33;;;;;;;;;;6153459;23;20083;-75
2022/07/07 11:17:45;;;;;;;4.28;1.90;;;;;;;;;;6151831;23;20032;-76
2022/07/07 11:20:15;;;;;;;3.30;2.08;;;;;;;;;;6153685;23;20004;-77
2022/07/07 11:22:45;;;;;;;3.05;1.70;;;;;;;;;;6124700;23;20017;-75
2022/07/07 11:25:12;;;;;;;2.90;1.27;;;;;;;;;;6152824;23;19998;-75
2022/07/07 11:27:38;;;;;;;3.15;1.98;;;;;;;;;;6153851;23;20008;-76
2022/07/07 11:30:05;;;;;;;3.30;1.77;;;;;;;;;;6127661;23;20049;-77
2022/07/07 11:32:38;;;;;;;8.00;5.45;;;;;;;;;;6154029;23;20449;-75
2022/07/07 11:35:11;;;;;;;4.88;1.55;;;;;;;;;;6152725;23;20025;-77
2022/07/07 11:37:39;;;;;;;3.47;2.38;;;;;;;;;;6151601;23;20009;-76
2022/07/07 11:40:06;;;;;;;5.63;3.63;;;;;;;;;;6151974;23;20060;-78
2022/07/07 11:42:36;;;;;;;3.30;1.90;;;;;;;;;;6152130;23;20081;-76
2022/07/07 11:45:02;;;;;;;5.90;2.17;;;;;;;;;;6151647;23;20088;-76
2022/07/07 11:47:33;;;;;;;1.88;1.13;;;;;;;;;;6151904;23;20433;-76
2022/07/07 11:49:59;;;;;;;3.75;2.17;;;;;;;;;;6125916;23;20004;-75
2022/07/07 11:52:25;;;;;;;3.40;2.45;;;;;;;;;;6153875;23;20445;-76
2022/07/07 11:54:51;;;;;;;2.40;1.73;;;;;;;;;;6153691;23;19994;-75
2022/07/07 11:57:47;;;;;;;3.17;1.40;;;;;;;;;;6154081;23;20004;-75
2022/07/07 12:00:13;;;;;;;2.95;1.38;;;;;;;;;;6128967;23;20013;-76
2022/07/07 12:02:39;;;;;;;2.65;1.27;;;;;;;;;;6154599;23;20009;-76
2022/07/07 12:05:06;;;;;;;4.22;1.73;;;;;;;;;;6155017;23;20002;-75
2022/07/07 12:07:32;;;;;;;6.40;4.35;;;;;;;;;;6154090;23;20004;-76
2022/07/07 12:09:58;;;;;;;2.00;0.95;;;;;;;;;;6154015;23;20455;-76
2022/07/07 12:12:24;;;;;;;2.47;1.45;;;;;;;;;;6154023;23;20005;-75
2022/07/07 12:14:50;;;;;;;2.53;1.10;;;;;;;;;;6127654;23;20033;-75
2022/07/07 12:17:35;;;;;;;7.57;1.83;;;;;;;;;;6127662;23;20118;-76
2022/07/07 12:20:01;;;;;;;5.70;1.70;;;;;;;;;;6153943;23;20009;-78
2022/07/07 12:22:34;;;;;;;2.40;1.33;;;;;;;;;;6153557;23;20016;-75
2022/07/07 12:25:01;;;;;;;2.97;2.22;;;;;;;;;;6153822;23;20008;-74
2022/07/07 12:27:27;;;;;;;4.10;2.50;;;;;;;;;;6153670;23;20175;-77
2022/07/07 12:30:01;;;;;;;2.50;1.15;;;;;;;;;;6153846;23;19994;-76
2022/07/07 12:32:26;;;;;;;;;;;;;;;;;;6154265;23;20321;-75
2022/07/07 12:34:53;;;;;;;7.65;1.10;;;;;;;;;;6153915;23;19932;-76
2022/07/07 12:37:21;;;;;;;2.80;1.25;;;;;;;;;;6155556;23;19997;-78
2022/07/07 12:39:51;;;;;;;1.67;1.23;;;;;;;;;;6129498;23;20001;-79
2022/07/07 12:42:26;;;;;;;1.90;1.23;;;;;;;;;;6129000;23;20030;-79
2022/07/07 12:45:08;;;;;;;1.90;1.00;;;;;;;;;;6155379;23;20051;-79
2022/07/07 12:47:34;;;;;;;1.88;1.00;;;;;;;;;;6155432;23;19998;-79
2022/07/07 12:50:00;;;;;;;3.83;1.20;;;;;;;;;;6155174;23;20009;-79
2022/07/07 12:52:28;;;;;;;2.13;1.33;;;;;;;;;;6129217;23;19997;-79
2022/07/07 12:55:05;;;;;;;4.65;1.48;;;;;;;;;;6155448;23;20118;-79
2022/07/07 12:57:31;;;;;;;2.45;1.10;;;;;;;;;;6155599;23;20045;-79